WetterOnline ( https://www.wetteronline.de )

Wetter aktuell Cuxhaven

Aktuelles Wetter: Cuxhaven (12m)

6-stündlich | Neueste Meldungen
Ortszeit Temperatur Wetter
Fr, 03.02. 19:00 7.2° C bedeckt
Fr, 03.02. 13:00 8.0° C leicht bewölkt
Fr, 03.02. 7:00 7.9° C bedeckt
Fr, 03.02. 1:00 7.2° C bedeckt
Do, 02.02. 19:00 5.9° C leichter Regen
Do, 02.02. 13:00 7.2° C wolkig
Do, 02.02. 7:00 5.6° C wolkig
Do, 02.02. 1:00 5.7° C bewölkt
Ortszeit Temperatur Wetter
Fr, 03.02. 20:30 6.8° C bewölkt
Fr, 03.02. 20:20 6.8° C bewölkt
Fr, 03.02. 20:10 6.8° C bewölkt
Fr, 03.02. 20:00 7.0° C bewölkt
Fr, 03.02. 19:50 7.0° C bewölkt
Fr, 03.02. 19:40 7.1° C bedeckt
Fr, 03.02. 19:30 7.3° C bedeckt
Fr, 03.02. 19:00 7.2° C bedeckt
Fr, 03.02. 18:30 7.2° C bedeckt
Fr, 03.02. 18:00 7.3° C bewölkt
Fr, 03.02. 17:30 7.2° C bewölkt
Ortszeit Relative Feuchte Sichtweite
Fr, 03.02. 19:00 78% 11 km
Fr, 03.02. 13:00 74% 13 km
Fr, 03.02. 7:00 87% 17 km
Fr, 03.02. 1:00 91% 19 km
Do, 02.02. 19:00 86% 17 km
Do, 02.02. 13:00 77% 30 km
Do, 02.02. 7:00 85% 15 km
Do, 02.02. 1:00 83% 16 km
Ortszeit Relative Feuchte Sichtweite
Fr, 03.02. 20:30 79% 11 km
Fr, 03.02. 20:20 79% -
Fr, 03.02. 20:10 79% -
Fr, 03.02. 20:00 78% 11 km
Fr, 03.02. 19:50 78% -
Fr, 03.02. 19:40 78% -
Fr, 03.02. 19:30 77% 11 km
Fr, 03.02. 19:00 78% 11 km
Fr, 03.02. 18:30 78% 12 km
Fr, 03.02. 18:00 78% 12 km
Fr, 03.02. 17:30 79% 12 km
Ortszeit Niederschlagsmenge Niederschlagsart
Fr, 03.02. 19:00 0.7 l/m2 in 12 Std. Regen
Fr, 03.02. 13:00 0.7 l/m2 in 6 Std. Regen
Fr, 03.02. 7:00 6 l/m2 in 12 Std. Regen
Fr, 03.02. 1:00 6 l/m2 in 6 Std. Regen
Do, 02.02. 19:00 0.1 l/m2 in 12 Std. Regen
Do, 02.02. 13:00 0.1 l/m2 in 6 Std. Sprühregen
Do, 02.02. 7:00 1 l/m2 in 12 Std. Regen
Do, 02.02. 1:00 0.7 l/m2 in 6 Std. Regen
Ortszeit Niederschlagsmenge Niederschlagsart
Fr, 03.02. 20:30 0.0 l/m2 in 30 Min -
Fr, 03.02. 20:20 keine Meldung -
Fr, 03.02. 20:10 keine Meldung -
Fr, 03.02. 20:00 0.0 l/m2 in 1 Std. -
Fr, 03.02. 19:50 keine Meldung -
Fr, 03.02. 19:40 keine Meldung -
Fr, 03.02. 19:30 0.0 l/m2 in 30 Min -
Fr, 03.02. 19:00 <0.05 l/m2 in 1 Std. Regen
Fr, 03.02. 18:30 0.0 l/m2 in 30 Min -
Fr, 03.02. 18:00 <0.05 l/m2 in 1 Std. Regen
Fr, 03.02. 17:30 <0.05 l/m2 in 30 Min Schneeregen
Ortszeit Stärke Spitze Richtung
km/h Bft. km/h Grad Sektor
Fr, 03.02. 19:00 50 7 76 290° W
Fr, 03.02. 13:00 44 6 91 280° W
Fr, 03.02. 7:00 43 6 79 250° W
Fr, 03.02. 1:00 31 5 56 250° W
Do, 02.02. 19:00 9 2 28 220° SW
Do, 02.02. 13:00 18 3 47 290° W
Do, 02.02. 7:00 28 4 70 280° W
Do, 02.02. 1:00 39 6 93 290° W
Ortszeit Stärke Spitze Richtung
km/h Bft. km/h Grad Sektor
Fr, 03.02. 20:30 48 6 69 300° NW
Fr, 03.02. 20:20 48 6 - 300° NW
Fr, 03.02. 20:10 47 6 - 300° NW
Fr, 03.02. 20:00 52 7 81 300° NW
Fr, 03.02. 19:50 52 7 - 300° NW
Fr, 03.02. 19:40 50 7 - 300° NW
Fr, 03.02. 19:30 58 7 79 300° NW
Fr, 03.02. 19:00 50 7 76 290° W
Fr, 03.02. 18:30 50 7 72 290° W
Fr, 03.02. 18:00 46 6 69 280° W
Fr, 03.02. 17:30 43 6 65 280° W
Ortszeit Untergrenze Bedeckung Gattung
total tief tief mittel hoch
Fr, 03.02. 19:00 750 m 8/8 8/8 - - -
Fr, 03.02. 13:00 6900 m 5/8 2/8 - - -
Fr, 03.02. 7:00 570 m 8/8 8/8 - - -
Fr, 03.02. 1:00 1020 m 8/8 8/8 - - -
Do, 02.02. 19:00 510 m 7/8 7/8 - - -
Do, 02.02. 13:00 5700 m 5/8 5/8 - - -
Do, 02.02. 7:00 660 m 8/8 2/8 - - -
Do, 02.02. 1:00 450 m 7/8 7/8 - - -
Ortszeit Bedeckungsgrad in Achtel und Wolkenuntergrenze
Fr, 03.02. 20:30 7(1320m) 8(4800m)
Fr, 03.02. 20:20 7(1320m) 8(4800m)
Fr, 03.02. 20:10 7
Fr, 03.02. 20:00 3(780m) 7(1500m) 7(5100m)
Fr, 03.02. 19:50 3(780m) 7(1500m) 7(5100m)
Fr, 03.02. 19:40 8
Fr, 03.02. 19:30 5(810m) 8(1230m)
Fr, 03.02. 19:00 2(750m) 8(1500m) 8(5100m)
Fr, 03.02. 18:30 3(840m) 8(1410m) 8(5100m)
Fr, 03.02. 18:00 7(960m)
Fr, 03.02. 17:30 1(870m) 7(1170m) 8(5400m)
Ortszeit Luftdruck NN (hPa) Tendenz (hPa in 3 Std.)
Fr, 03.02. 19:00 1020 + 2,1
Fr, 03.02. 13:00 1016 + 2,1
Fr, 03.02. 7:00 1013 - 2,4
Fr, 03.02. 1:00 1017 - 1,7
Do, 02.02. 19:00 1021 + 0,6
Do, 02.02. 13:00 1020 + 2,2
Do, 02.02. 7:00 1016 + 2,0
Do, 02.02. 1:00 1012 + 2,0
Ortszeit Luftdruck NN (hPa) Tendenz (hPa in 3 Std.)
Fr, 03.02. 20:30 1023 + 3,6
Fr, 03.02. 20:20 1023 keine Meldung
Fr, 03.02. 20:10 1022 keine Meldung
Fr, 03.02. 20:00 1022 + 3,4
Fr, 03.02. 19:50 1022 keine Meldung
Fr, 03.02. 19:40 1022 keine Meldung
Fr, 03.02. 19:30 1021 + 2,7
Fr, 03.02. 19:00 1020 + 2,1
Fr, 03.02. 18:30 1020 + 1,9
Fr, 03.02. 18:00 1019 + 1,8
Fr, 03.02. 17:30 1019 + 1,8
Ortszeit Schneehöhe (cm)
Fr, 03.02. 19:00 0
Fr, 03.02. 13:00 0
Fr, 03.02. 7:00 0
Fr, 03.02. 1:00 0
Do, 02.02. 19:00 0
Do, 02.02. 13:00 0
Do, 02.02. 7:00 0
Do, 02.02. 1:00 0
Ortszeit Schneehöhe (cm)
Fr, 03.02. 20:30 0
Fr, 03.02. 20:20 0
Fr, 03.02. 20:10 0
Fr, 03.02. 20:00 0
Fr, 03.02. 19:50 0
Fr, 03.02. 19:40 0
Fr, 03.02. 19:30 0
Fr, 03.02. 19:00 0
Fr, 03.02. 18:30 0
Fr, 03.02. 18:00 0
Fr, 03.02. 17:30 0
Link zu dieser Seite / Seite empfehlen

Das Wetter in ...